Weather at Ecuvillens Airport

Public forecast

Using degrees Celsius for public forecast. Weather courtesy of forecast.io.

Closest aviation weather report (METAR) to Ecuvillens Airport

Closest report is Payerne Air Base, 8.5 nm (15.7 km) NW. Retrieved 2020/12/03 22:20 UTC (7 minutes ago):

LSMP 032220Z VRB01KT 9999 BKN099 01/M02 Q0994 RMK BLU

Closest aviation forecast (TAF) to Ecuvillens Airport

Closest forecast is Payerne Air Base, 8.5 nm (15.7 km) NW. Retrieved 2020/12/03 17:00 UTC (5 hours ago):

TAF LSMP 031625Z 0317/0423 22004KT CAVOK BECMG 0319/0321 9999 BKN060 BECMG 0408/0410 4500 RASN BKN012 PROB40 TEMPO 0409/0418 2000 SN OVC008